sensor_id;sensor_type;location;lat;lon;timestamp;P1;durP1;ratioP1;P2;durP2;ratioP2
9032;SDS011;4551;53.164;8.210;2022-07-06T00:02:04;3.30;;;1.53;;
9032;SDS011;4551;53.164;8.210;2022-07-06T00:04:33;2.30;;;1.50;;
9032;SDS011;4551;53.164;8.210;2022-07-06T00:07:01;4.17;;;1.70;;
9032;SDS011;4551;53.164;8.210;2022-07-06T00:09:29;3.30;;;1.70;;
9032;SDS011;4551;53.164;8.210;2022-07-06T00:12:01;6.20;;;2.13;;
9032;SDS011;4551;53.164;8.210;2022-07-06T00:14:30;2.87;;;1.70;;
9032;SDS011;4551;53.164;8.210;2022-07-06T00:16:58;1.30;;;1.20;;
9032;SDS011;4551;53.164;8.210;2022-07-06T00:19:26;3.73;;;1.70;;
9032;SDS011;4551;53.164;8.210;2022-07-06T00:21:54;3.37;;;1.60;;
9032;SDS011;4551;53.164;8.210;2022-07-06T00:24:23;4.03;;;1.73;;
9032;SDS011;4551;53.164;8.210;2022-07-06T00:26:51;5.10;;;1.60;;
9032;SDS011;4551;53.164;8.210;2022-07-06T00:29:20;5.97;;;1.60;;
9032;SDS011;4551;53.164;8.210;2022-07-06T00:31:48;3.30;;;1.57;;
9032;SDS011;4551;53.164;8.210;2022-07-06T00:34:17;4.60;;;1.50;;
9032;SDS011;4551;53.164;8.210;2022-07-06T00:36:45;2.57;;;1.67;;
9032;SDS011;4551;53.164;8.210;2022-07-06T00:39:13;4.20;;;1.67;;
9032;SDS011;4551;53.164;8.210;2022-07-06T00:41:41;4.03;;;2.20;;
9032;SDS011;4551;53.164;8.210;2022-07-06T00:44:09;3.27;;;1.90;;
9032;SDS011;4551;53.164;8.210;2022-07-06T00:46:39;2.17;;;1.53;;
9032;SDS011;4551;53.164;8.210;2022-07-06T00:49:07;2.30;;;1.73;;
9032;SDS011;4551;53.164;8.210;2022-07-06T00:51:56;1.93;;;1.53;;
9032;SDS011;4551;53.164;8.210;2022-07-06T00:54:25;3.73;;;1.80;;
9032;SDS011;4551;53.164;8.210;2022-07-06T00:56:55;3.67;;;1.67;;
9032;SDS011;4551;53.164;8.210;2022-07-06T00:59:24;3.03;;;1.67;;
9032;SDS011;4551;53.164;8.210;2022-07-06T01:01:54;4.80;;;2.30;;
9032;SDS011;4551;53.164;8.210;2022-07-06T01:04:23;3.23;;;2.03;;
9032;SDS011;4551;53.164;8.210;2022-07-06T01:06:51;3.03;;;1.73;;
9032;SDS011;4551;53.164;8.210;2022-07-06T01:09:19;2.17;;;1.47;;
9032;SDS011;4551;53.164;8.210;2022-07-06T01:11:47;2.80;;;1.90;;
9032;SDS011;4551;53.164;8.210;2022-07-06T01:14:16;5.03;;;2.67;;
9032;SDS011;4551;53.164;8.210;2022-07-06T01:16:44;3.57;;;2.43;;
9032;SDS011;4551;53.164;8.210;2022-07-06T01:19:14;3.67;;;2.67;;
9032;SDS011;4551;53.164;8.210;2022-07-06T01:21:43;4.47;;;2.30;;
9032;SDS011;4551;53.164;8.210;2022-07-06T01:24:11;2.30;;;2.07;;
9032;SDS011;4551;53.164;8.210;2022-07-06T01:26:40;6.93;;;2.00;;
9032;SDS011;4551;53.164;8.210;2022-07-06T01:29:08;4.87;;;2.20;;
9032;SDS011;4551;53.164;8.210;2022-07-06T01:31:41;2.67;;;1.73;;
9032;SDS011;4551;53.164;8.210;2022-07-06T01:34:14;4.57;;;2.33;;
9032;SDS011;4551;53.164;8.210;2022-07-06T01:36:44;4.20;;;1.93;;
9032;SDS011;4551;53.164;8.210;2022-07-06T01:39:13;2.73;;;2.07;;
9032;SDS011;4551;53.164;8.210;2022-07-06T01:41:41;5.90;;;2.20;;
9032;SDS011;4551;53.164;8.210;2022-07-06T01:44:10;5.07;;;2.40;;
9032;SDS011;4551;53.164;8.210;2022-07-06T01:46:38;2.77;;;1.90;;
9032;SDS011;4551;53.164;8.210;2022-07-06T01:49:07;3.23;;;2.03;;
9032;SDS011;4551;53.164;8.210;2022-07-06T01:51:35;4.27;;;2.00;;
9032;SDS011;4551;53.164;8.210;2022-07-06T01:54:05;5.57;;;2.00;;
9032;SDS011;4551;53.164;8.210;2022-07-06T01:56:33;2.87;;;1.50;;
9032;SDS011;4551;53.164;8.210;2022-07-06T01:59:01;3.47;;;2.00;;
9032;SDS011;4551;53.164;8.210;2022-07-06T02:01:29;3.93;;;1.60;;
9032;SDS011;4551;53.164;8.210;2022-07-06T02:03:58;4.53;;;1.80;;
9032;SDS011;4551;53.164;8.210;2022-07-06T02:06:29;6.93;;;2.10;;
9032;SDS011;4551;53.164;8.210;2022-07-06T02:08:57;4.90;;;1.87;;
9032;SDS011;4551;53.164;8.210;2022-07-06T02:11:27;3.73;;;1.97;;
9032;SDS011;4551;53.164;8.210;2022-07-06T02:13:55;3.37;;;1.60;;
9032;SDS011;4551;53.164;8.210;2022-07-06T02:16:23;3.83;;;1.47;;
9032;SDS011;4551;53.164;8.210;2022-07-06T02:18:52;3.00;;;1.60;;
9032;SDS011;4551;53.164;8.210;2022-07-06T02:21:20;3.57;;;2.07;;
9032;SDS011;4551;53.164;8.210;2022-07-06T02:23:48;3.27;;;2.13;;
9032;SDS011;4551;53.164;8.210;2022-07-06T02:26:16;3.40;;;2.10;;
9032;SDS011;4551;53.164;8.210;2022-07-06T02:28:46;4.03;;;2.50;;
9032;SDS011;4551;53.164;8.210;2022-07-06T02:31:14;2.57;;;2.13;;
9032;SDS011;4551;53.164;8.210;2022-07-06T02:33:43;4.80;;;2.13;;
9032;SDS011;4551;53.164;8.210;2022-07-06T02:36:11;4.60;;;1.93;;
9032;SDS011;4551;53.164;8.210;2022-07-06T02:38:39;2.63;;;2.03;;
9032;SDS011;4551;53.164;8.210;2022-07-06T02:41:07;3.80;;;2.30;;
9032;SDS011;4551;53.164;8.210;2022-07-06T02:43:36;3.27;;;2.30;;
9032;SDS011;4551;53.164;8.210;2022-07-06T02:46:06;4.60;;;2.30;;
9032;SDS011;4551;53.164;8.210;2022-07-06T02:48:35;4.17;;;2.20;;
9032;SDS011;4551;53.164;8.210;2022-07-06T02:51:03;3.37;;;1.90;;
9032;SDS011;4551;53.164;8.210;2022-07-06T02:53:31;2.93;;;1.80;;
9032;SDS011;4551;53.164;8.210;2022-07-06T02:56:00;3.87;;;2.00;;
9032;SDS011;4551;53.164;8.210;2022-07-06T02:58:28;4.97;;;1.67;;
9032;SDS011;4551;53.164;8.210;2022-07-06T03:00:56;4.87;;;2.17;;
9032;SDS011;4551;53.164;8.210;2022-07-06T03:03:26;6.73;;;2.30;;
9032;SDS011;4551;53.164;8.210;2022-07-06T03:05:54;4.10;;;2.73;;
9032;SDS011;4551;53.164;8.210;2022-07-06T03:08:22;4.83;;;2.50;;
9032;SDS011;4551;53.164;8.210;2022-07-06T03:10:51;3.53;;;2.20;;
9032;SDS011;4551;53.164;8.210;2022-07-06T03:13:19;3.30;;;1.97;;
9032;SDS011;4551;53.164;8.210;2022-07-06T03:15:50;5.07;;;2.00;;
9032;SDS011;4551;53.164;8.210;2022-07-06T03:18:18;3.93;;;2.23;;
9032;SDS011;4551;53.164;8.210;2022-07-06T03:20:48;3.97;;;2.00;;
9032;SDS011;4551;53.164;8.210;2022-07-06T03:23:16;2.23;;;1.80;;
9032;SDS011;4551;53.164;8.210;2022-07-06T03:25:44;3.90;;;1.90;;
9032;SDS011;4551;53.164;8.210;2022-07-06T03:28:13;2.50;;;2.20;;
9032;SDS011;4551;53.164;8.210;2022-07-06T03:30:41;5.80;;;3.10;;
9032;SDS011;4551;53.164;8.210;2022-07-06T03:33:09;5.67;;;1.93;;
9032;SDS011;4551;53.164;8.210;2022-07-06T03:35:37;3.30;;;1.93;;
9032;SDS011;4551;53.164;8.210;2022-07-06T03:38:07;4.57;;;2.50;;
9032;SDS011;4551;53.164;8.210;2022-07-06T03:40:35;2.90;;;2.40;;
9032;SDS011;4551;53.164;8.210;2022-07-06T03:43:03;3.50;;;1.93;;
9032;SDS011;4551;53.164;8.210;2022-07-06T03:45:31;1.93;;;1.50;;
9032;SDS011;4551;53.164;8.210;2022-07-06T03:48:00;2.33;;;1.57;;
9032;SDS011;4551;53.164;8.210;2022-07-06T03:50:28;2.73;;;1.80;;
9032;SDS011;4551;53.164;8.210;2022-07-06T03:52:57;10.30;;;2.47;;
9032;SDS011;4551;53.164;8.210;2022-07-06T03:55:26;5.30;;;1.90;;
9032;SDS011;4551;53.164;8.210;2022-07-06T03:57:55;2.00;;;1.50;;
9032;SDS011;4551;53.164;8.210;2022-07-06T04:00:31;7.67;;;2.00;;
9032;SDS011;4551;53.164;8.210;2022-07-06T04:03:01;5.47;;;2.10;;
9032;SDS011;4551;53.164;8.210;2022-07-06T04:05:29;4.57;;;1.50;;
9032;SDS011;4551;53.164;8.210;2022-07-06T04:07:57;3.20;;;2.00;;
9032;SDS011;4551;53.164;8.210;2022-07-06T04:10:27;3.93;;;1.97;;
9032;SDS011;4551;53.164;8.210;2022-07-06T04:12:57;5.00;;;1.70;;
9032;SDS011;4551;53.164;8.210;2022-07-06T04:15:25;1.93;;;1.77;;
9032;SDS011;4551;53.164;8.210;2022-07-06T04:17:53;3.80;;;1.90;;
9032;SDS011;4551;53.164;8.210;2022-07-06T04:20:23;3.77;;;2.17;;
9032;SDS011;4551;53.164;8.210;2022-07-06T04:22:52;5.27;;;1.90;;
9032;SDS011;4551;53.164;8.210;2022-07-06T04:25:20;4.33;;;2.20;;
9032;SDS011;4551;53.164;8.210;2022-07-06T04:27:50;4.83;;;2.07;;
9032;SDS011;4551;53.164;8.210;2022-07-06T04:30:20;4.20;;;2.13;;
9032;SDS011;4551;53.164;8.210;2022-07-06T04:32:49;4.50;;;2.10;;
9032;SDS011;4551;53.164;8.210;2022-07-06T04:35:17;4.07;;;2.00;;
9032;SDS011;4551;53.164;8.210;2022-07-06T04:37:46;3.90;;;2.07;;
9032;SDS011;4551;53.164;8.210;2022-07-06T04:40:14;3.87;;;2.10;;
9032;SDS011;4551;53.164;8.210;2022-07-06T04:42:44;3.83;;;2.20;;
9032;SDS011;4551;53.164;8.210;2022-07-06T04:45:14;4.77;;;2.03;;
9032;SDS011;4551;53.164;8.210;2022-07-06T04:47:42;2.97;;;2.70;;
9032;SDS011;4551;53.164;8.210;2022-07-06T04:50:11;3.87;;;1.70;;
9032;SDS011;4551;53.164;8.210;2022-07-06T04:52:39;2.57;;;1.93;;
9032;SDS011;4551;53.164;8.210;2022-07-06T04:55:07;3.20;;;1.97;;
9032;SDS011;4551;53.164;8.210;2022-07-06T04:57:36;2.90;;;2.10;;
9032;SDS011;4551;53.164;8.210;2022-07-06T05:00:05;1.87;;;1.70;;
9032;SDS011;4551;53.164;8.210;2022-07-06T05:02:36;3.97;;;2.10;;
9032;SDS011;4551;53.164;8.210;2022-07-06T05:05:04;5.87;;;2.50;;
9032;SDS011;4551;53.164;8.210;2022-07-06T05:07:33;7.53;;;2.73;;
9032;SDS011;4551;53.164;8.210;2022-07-06T05:10:06;3.17;;;2.07;;
9032;SDS011;4551;53.164;8.210;2022-07-06T05:12:35;6.60;;;1.90;;
9032;SDS011;4551;53.164;8.210;2022-07-06T05:15:04;5.37;;;2.40;;
9032;SDS011;4551;53.164;8.210;2022-07-06T05:17:33;6.27;;;1.80;;
9032;SDS011;4551;53.164;8.210;2022-07-06T05:20:04;5.63;;;2.63;;
9032;SDS011;4551;53.164;8.210;2022-07-06T05:22:33;4.53;;;1.63;;
9032;SDS011;4551;53.164;8.210;2022-07-06T05:25:09;4.33;;;1.73;;
9032;SDS011;4551;53.164;8.210;2022-07-06T05:27:37;5.93;;;1.83;;
9032;SDS011;4551;53.164;8.210;2022-07-06T05:30:06;4.10;;;2.60;;
9032;SDS011;4551;53.164;8.210;2022-07-06T05:32:37;5.33;;;3.17;;
9032;SDS011;4551;53.164;8.210;2022-07-06T05:35:05;3.07;;;1.40;;
9032;SDS011;4551;53.164;8.210;2022-07-06T05:37:55;4.33;;;1.73;;
9032;SDS011;4551;53.164;8.210;2022-07-06T05:40:23;2.80;;;1.90;;
9032;SDS011;4551;53.164;8.210;2022-07-06T05:42:51;3.30;;;1.63;;
9032;SDS011;4551;53.164;8.210;2022-07-06T05:45:19;5.27;;;1.70;;
9032;SDS011;4551;53.164;8.210;2022-07-06T05:47:50;3.17;;;1.67;;
9032;SDS011;4551;53.164;8.210;2022-07-06T05:50:35;2.60;;;1.53;;
9032;SDS011;4551;53.164;8.210;2022-07-06T05:53:04;4.07;;;2.13;;
9032;SDS011;4551;53.164;8.210;2022-07-06T05:55:44;5.07;;;1.30;;
9032;SDS011;4551;53.164;8.210;2022-07-06T05:58:13;4.10;;;1.40;;
9032;SDS011;4551;53.164;8.210;2022-07-06T06:00:41;5.70;;;1.60;;
9032;SDS011;4551;53.164;8.210;2022-07-06T06:03:11;4.97;;;1.60;;
9032;SDS011;4551;53.164;8.210;2022-07-06T06:05:39;4.70;;;1.80;;
9032;SDS011;4551;53.164;8.210;2022-07-06T06:08:07;4.30;;;1.40;;
9032;SDS011;4551;53.164;8.210;2022-07-06T06:10:36;3.37;;;1.20;;
9032;SDS011;4551;53.164;8.210;2022-07-06T06:13:04;6.87;;;1.50;;
9032;SDS011;4551;53.164;8.210;2022-07-06T06:15:33;4.00;;;1.10;;
9032;SDS011;4551;53.164;8.210;2022-07-06T06:18:01;2.60;;;1.10;;
9032;SDS011;4551;53.164;8.210;2022-07-06T06:20:32;7.10;;;1.37;;
9032;SDS011;4551;53.164;8.210;2022-07-06T06:23:00;4.30;;;1.40;;
9032;SDS011;4551;53.164;8.210;2022-07-06T06:25:31;2.17;;;1.30;;
9032;SDS011;4551;53.164;8.210;2022-07-06T06:28:01;4.80;;;1.40;;
9032;SDS011;4551;53.164;8.210;2022-07-06T06:30:30;4.53;;;1.63;;
9032;SDS011;4551;53.164;8.210;2022-07-06T06:33:05;4.77;;;1.67;;
9032;SDS011;4551;53.164;8.210;2022-07-06T06:35:41;2.23;;;1.10;;
9032;SDS011;4551;53.164;8.210;2022-07-06T06:38:11;1.80;;;1.00;;
9032;SDS011;4551;53.164;8.210;2022-07-06T06:40:40;1.30;;;1.10;;
9032;SDS011;4551;53.164;8.210;2022-07-06T06:43:08;2.80;;;1.00;;
9032;SDS011;4551;53.164;8.210;2022-07-06T06:45:37;1.70;;;0.93;;
9032;SDS011;4551;53.164;8.210;2022-07-06T06:48:05;5.80;;;1.20;;
9032;SDS011;4551;53.164;8.210;2022-07-06T06:50:43;5.17;;;1.40;;
9032;SDS011;4551;53.164;8.210;2022-07-06T06:53:12;5.13;;;1.83;;
9032;SDS011;4551;53.164;8.210;2022-07-06T06:55:40;8.27;;;1.80;;
9032;SDS011;4551;53.164;8.210;2022-07-06T06:58:08;2.20;;;1.00;;
9032;SDS011;4551;53.164;8.210;2022-07-06T07:00:37;6.30;;;1.70;;
9032;SDS011;4551;53.164;8.210;2022-07-06T07:03:05;4.17;;;1.30;;
9032;SDS011;4551;53.164;8.210;2022-07-06T07:05:33;4.60;;;1.20;;
9032;SDS011;4551;53.164;8.210;2022-07-06T07:08:03;2.53;;;1.30;;
9032;SDS011;4551;53.164;8.210;2022-07-06T07:10:32;4.63;;;1.00;;
9032;SDS011;4551;53.164;8.210;2022-07-06T07:13:00;8.37;;;1.33;;
9032;SDS011;4551;53.164;8.210;2022-07-06T07:15:28;4.47;;;0.87;;
9032;SDS011;4551;53.164;8.210;2022-07-06T07:17:57;1.93;;;1.07;;
9032;SDS011;4551;53.164;8.210;2022-07-06T07:20:25;2.70;;;1.03;;
9032;SDS011;4551;53.164;8.210;2022-07-06T07:22:56;2.53;;;0.80;;
9032;SDS011;4551;53.164;8.210;2022-07-06T07:25:26;3.10;;;1.00;;
9032;SDS011;4551;53.164;8.210;2022-07-06T07:27:54;4.20;;;1.27;;
9032;SDS011;4551;53.164;8.210;2022-07-06T07:30:23;3.20;;;0.97;;
9032;SDS011;4551;53.164;8.210;2022-07-06T07:32:51;3.80;;;1.40;;
9032;SDS011;4551;53.164;8.210;2022-07-06T07:35:21;4.20;;;1.00;;
9032;SDS011;4551;53.164;8.210;2022-07-06T07:37:49;4.03;;;0.83;;
9032;SDS011;4551;53.164;8.210;2022-07-06T07:40:18;3.70;;;1.00;;
9032;SDS011;4551;53.164;8.210;2022-07-06T07:42:48;4.67;;;0.83;;
9032;SDS011;4551;53.164;8.210;2022-07-06T07:45:19;1.57;;;0.70;;
9032;SDS011;4551;53.164;8.210;2022-07-06T07:47:47;1.00;;;0.80;;
9032;SDS011;4551;53.164;8.210;2022-07-06T07:50:15;3.23;;;1.00;;
9032;SDS011;4551;53.164;8.210;2022-07-06T07:52:44;2.93;;;0.87;;
9032;SDS011;4551;53.164;8.210;2022-07-06T07:55:13;1.70;;;1.00;;
9032;SDS011;4551;53.164;8.210;2022-07-06T07:58:02;6.23;;;1.37;;
9032;SDS011;4551;53.164;8.210;2022-07-06T08:00:30;3.80;;;1.00;;
9032;SDS011;4551;53.164;8.210;2022-07-06T08:03:00;2.87;;;1.03;;
9032;SDS011;4551;53.164;8.210;2022-07-06T08:05:28;4.77;;;0.93;;
9032;SDS011;4551;53.164;8.210;2022-07-06T08:07:56;2.33;;;0.87;;
9032;SDS011;4551;53.164;8.210;2022-07-06T08:10:24;3.80;;;1.03;;
9032;SDS011;4551;53.164;8.210;2022-07-06T08:12:53;4.90;;;1.10;;
9032;SDS011;4551;53.164;8.210;2022-07-06T08:15:22;3.73;;;0.90;;
9032;SDS011;4551;53.164;8.210;2022-07-06T08:17:51;3.00;;;0.70;;
9032;SDS011;4551;53.164;8.210;2022-07-06T08:20:19;1.53;;;0.80;;
9032;SDS011;4551;53.164;8.210;2022-07-06T08:22:50;2.03;;;0.83;;
9032;SDS011;4551;53.164;8.210;2022-07-06T08:25:18;2.33;;;0.90;;
9032;SDS011;4551;53.164;8.210;2022-07-06T08:27:47;2.10;;;0.80;;
9032;SDS011;4551;53.164;8.210;2022-07-06T08:30:16;3.37;;;0.90;;
9032;SDS011;4551;53.164;8.210;2022-07-06T08:32:45;4.10;;;0.90;;
9032;SDS011;4551;53.164;8.210;2022-07-06T08:35:33;2.83;;;1.30;;
9032;SDS011;4551;53.164;8.210;2022-07-06T08:38:01;2.43;;;0.63;;
9032;SDS011;4551;53.164;8.210;2022-07-06T08:40:31;2.57;;;0.80;;
9032;SDS011;4551;53.164;8.210;2022-07-06T08:43:02;3.00;;;1.13;;
9032;SDS011;4551;53.164;8.210;2022-07-06T08:45:30;2.23;;;0.93;;
9032;SDS011;4551;53.164;8.210;2022-07-06T08:48:05;1.70;;;0.80;;
9032;SDS011;4551;53.164;8.210;2022-07-06T08:50:34;3.73;;;0.90;;
9032;SDS011;4551;53.164;8.210;2022-07-06T08:53:02;4.60;;;0.93;;
9032;SDS011;4551;53.164;8.210;2022-07-06T08:55:31;1.93;;;1.07;;
9032;SDS011;4551;53.164;8.210;2022-07-06T08:58:00;2.03;;;0.90;;
9032;SDS011;4551;53.164;8.210;2022-07-06T09:00:28;1.23;;;0.83;;
9032;SDS011;4551;53.164;8.210;2022-07-06T09:02:57;8.10;;;1.07;;
9032;SDS011;4551;53.164;8.210;2022-07-06T09:05:27;2.03;;;0.80;;
9032;SDS011;4551;53.164;8.210;2022-07-06T09:07:56;1.60;;;0.70;;
9032;SDS011;4551;53.164;8.210;2022-07-06T09:10:26;3.13;;;0.80;;
9032;SDS011;4551;53.164;8.210;2022-07-06T09:13:01;2.23;;;1.10;;
9032;SDS011;4551;53.164;8.210;2022-07-06T09:15:30;3.47;;;1.10;;
9032;SDS011;4551;53.164;8.210;2022-07-06T09:17:59;1.40;;;0.90;;
9032;SDS011;4551;53.164;8.210;2022-07-06T09:20:29;2.83;;;0.90;;
9032;SDS011;4551;53.164;8.210;2022-07-06T09:22:58;1.77;;;0.97;;
9032;SDS011;4551;53.164;8.210;2022-07-06T09:25:27;2.40;;;0.80;;
9032;SDS011;4551;53.164;8.210;2022-07-06T09:27:56;2.50;;;1.10;;
9032;SDS011;4551;53.164;8.210;2022-07-06T09:30:25;2.17;;;1.10;;
9032;SDS011;4551;53.164;8.210;2022-07-06T09:32:55;4.93;;;1.00;;
9032;SDS011;4551;53.164;8.210;2022-07-06T09:35:24;1.53;;;1.00;;
9032;SDS011;4551;53.164;8.210;2022-07-06T09:38:00;2.30;;;1.00;;
9032;SDS011;4551;53.164;8.210;2022-07-06T09:40:30;4.53;;;1.83;;
9032;SDS011;4551;53.164;8.210;2022-07-06T09:43:09;3.40;;;0.93;;
9032;SDS011;4551;53.164;8.210;2022-07-06T09:45:39;4.33;;;0.90;;
9032;SDS011;4551;53.164;8.210;2022-07-06T09:48:10;2.30;;;1.20;;
9032;SDS011;4551;53.164;8.210;2022-07-06T09:50:43;3.97;;;0.90;;
9032;SDS011;4551;53.164;8.210;2022-07-06T09:53:14;2.20;;;0.90;;
9032;SDS011;4551;53.164;8.210;2022-07-06T09:55:43;2.77;;;1.00;;
9032;SDS011;4551;53.164;8.210;2022-07-06T09:58:13;2.03;;;0.77;;
9032;SDS011;4551;53.164;8.210;2022-07-06T10:00:42;1.57;;;0.90;;
9032;SDS011;4551;53.164;8.210;2022-07-06T10:03:11;1.90;;;0.80;;
9032;SDS011;4551;53.164;8.210;2022-07-06T10:05:41;1.03;;;0.70;;
9032;SDS011;4551;53.164;8.210;2022-07-06T10:08:13;2.10;;;0.60;;
9032;SDS011;4551;53.164;8.210;2022-07-06T10:10:44;2.40;;;1.03;;
9032;SDS011;4551;53.164;8.210;2022-07-06T10:13:12;1.17;;;0.50;;
9032;SDS011;4551;53.164;8.210;2022-07-06T10:15:47;0.97;;;0.77;;
9032;SDS011;4551;53.164;8.210;2022-07-06T10:18:15;1.37;;;0.43;;
9032;SDS011;4551;53.164;8.210;2022-07-06T10:20:44;0.83;;;0.40;;
9032;SDS011;4551;53.164;8.210;2022-07-06T10:23:16;1.17;;;0.60;;
9032;SDS011;4551;53.164;8.210;2022-07-06T10:25:45;1.10;;;0.50;;
9032;SDS011;4551;53.164;8.210;2022-07-06T10:28:14;1.90;;;0.50;;
9032;SDS011;4551;53.164;8.210;2022-07-06T10:30:44;2.00;;;0.60;;
9032;SDS011;4551;53.164;8.210;2022-07-06T10:33:15;1.67;;;0.73;;
9032;SDS011;4551;53.164;8.210;2022-07-06T10:35:51;1.10;;;0.40;;
9032;SDS011;4551;53.164;8.210;2022-07-06T10:38:23;2.03;;;0.50;;
9032;SDS011;4551;53.164;8.210;2022-07-06T10:41:01;1.70;;;0.40;;
9032;SDS011;4551;53.164;8.210;2022-07-06T10:43:33;1.57;;;0.40;;
9032;SDS011;4551;53.164;8.210;2022-07-06T10:46:05;3.77;;;0.70;;
9032;SDS011;4551;53.164;8.210;2022-07-06T10:48:35;1.87;;;0.40;;
9032;SDS011;4551;53.164;8.210;2022-07-06T10:51:03;2.03;;;0.60;;
9032;SDS011;4551;53.164;8.210;2022-07-06T10:53:34;1.43;;;0.50;;
9032;SDS011;4551;53.164;8.210;2022-07-06T10:56:05;0.47;;;0.47;;
9032;SDS011;4551;53.164;8.210;2022-07-06T10:58:35;1.87;;;0.53;;
9032;SDS011;4551;53.164;8.210;2022-07-06T11:01:06;3.77;;;0.70;;
9032;SDS011;4551;53.164;8.210;2022-07-06T11:03:36;3.67;;;0.93;;
9032;SDS011;4551;53.164;8.210;2022-07-06T11:06:10;1.63;;;0.70;;
9032;SDS011;4551;53.164;8.210;2022-07-06T11:08:46;3.97;;;0.90;;
9032;SDS011;4551;53.164;8.210;2022-07-06T11:11:17;3.17;;;0.80;;
9032;SDS011;4551;53.164;8.210;2022-07-06T11:13:50;4.33;;;0.73;;
9032;SDS011;4551;53.164;8.210;2022-07-06T11:16:24;0.90;;;0.63;;
9032;SDS011;4551;53.164;8.210;2022-07-06T11:19:04;7.07;;;1.40;;
9032;SDS011;4551;53.164;8.210;2022-07-06T11:21:38;2.40;;;0.80;;
9032;SDS011;4551;53.164;8.210;2022-07-06T11:24:15;2.97;;;0.87;;
9032;SDS011;4551;53.164;8.210;2022-07-06T11:26:45;5.97;;;1.10;;
9032;SDS011;4551;53.164;8.210;2022-07-06T11:29:15;1.70;;;0.67;;
9032;SDS011;4551;53.164;8.210;2022-07-06T11:31:45;1.73;;;0.53;;
9032;SDS011;4551;53.164;8.210;2022-07-06T11:34:17;2.13;;;0.80;;
9032;SDS011;4551;53.164;8.210;2022-07-06T11:36:46;1.77;;;0.80;;
9032;SDS011;4551;53.164;8.210;2022-07-06T11:39:16;2.23;;;0.73;;
9032;SDS011;4551;53.164;8.210;2022-07-06T11:41:44;2.50;;;0.60;;
9032;SDS011;4551;53.164;8.210;2022-07-06T11:44:17;2.27;;;0.60;;
9032;SDS011;4551;53.164;8.210;2022-07-06T11:46:46;5.67;;;1.10;;
9032;SDS011;4551;53.164;8.210;2022-07-06T11:49:15;2.77;;;0.87;;
9032;SDS011;4551;53.164;8.210;2022-07-06T11:51:45;2.57;;;0.70;;
9032;SDS011;4551;53.164;8.210;2022-07-06T11:54:14;1.93;;;0.60;;
9032;SDS011;4551;53.164;8.210;2022-07-06T11:56:48;0.73;;;0.60;;
9032;SDS011;4551;53.164;8.210;2022-07-06T11:59:20;3.23;;;0.90;;
9032;SDS011;4551;53.164;8.210;2022-07-06T12:01:50;3.13;;;0.67;;
9032;SDS011;4551;53.164;8.210;2022-07-06T12:04:25;1.67;;;0.63;;
9032;SDS011;4551;53.164;8.210;2022-07-06T12:06:53;3.30;;;0.80;;
9032;SDS011;4551;53.164;8.210;2022-07-06T12:09:22;1.63;;;0.60;;
9032;SDS011;4551;53.164;8.210;2022-07-06T12:11:52;2.93;;;1.00;;
9032;SDS011;4551;53.164;8.210;2022-07-06T12:14:20;2.27;;;0.80;;
9032;SDS011;4551;53.164;8.210;2022-07-06T12:16:49;0.50;;;0.50;;
9032;SDS011;4551;53.164;8.210;2022-07-06T12:19:19;2.10;;;0.60;;
9032;SDS011;4551;53.164;8.210;2022-07-06T12:21:50;4.17;;;0.70;;
9032;SDS011;4551;53.164;8.210;2022-07-06T12:24:19;1.10;;;0.80;;
9032;SDS011;4551;53.164;8.210;2022-07-06T12:26:49;1.63;;;0.50;;
9032;SDS011;4551;53.164;8.210;2022-07-06T12:29:20;1.80;;;0.60;;
9032;SDS011;4551;53.164;8.210;2022-07-06T12:31:49;2.90;;;0.70;;
9032;SDS011;4551;53.164;8.210;2022-07-06T12:34:19;6.50;;;0.73;;
9032;SDS011;4551;53.164;8.210;2022-07-06T12:36:49;1.97;;;0.83;;
9032;SDS011;4551;53.164;8.210;2022-07-06T12:39:23;1.10;;;0.63;;
9032;SDS011;4551;53.164;8.210;2022-07-06T12:42:07;1.20;;;0.53;;
9032;SDS011;4551;53.164;8.210;2022-07-06T12:44:44;3.43;;;0.50;;
9032;SDS011;4551;53.164;8.210;2022-07-06T12:47:16;2.10;;;0.53;;
9032;SDS011;4551;53.164;8.210;2022-07-06T12:49:45;2.77;;;0.70;;
9032;SDS011;4551;53.164;8.210;2022-07-06T12:52:14;5.20;;;0.70;;
9032;SDS011;4551;53.164;8.210;2022-07-06T12:54:44;0.67;;;0.50;;
9032;SDS011;4551;53.164;8.210;2022-07-06T12:57:15;0.97;;;0.70;;
9032;SDS011;4551;53.164;8.210;2022-07-06T12:59:45;2.10;;;0.53;;
9032;SDS011;4551;53.164;8.210;2022-07-06T13:02:17;1.13;;;0.57;;
9032;SDS011;4551;53.164;8.210;2022-07-06T13:05:07;0.53;;;0.53;;
9032;SDS011;4551;53.164;8.210;2022-07-06T13:07:38;3.97;;;0.93;;
9032;SDS011;4551;53.164;8.210;2022-07-06T13:10:14;0.60;;;0.60;;
9032;SDS011;4551;53.164;8.210;2022-07-06T13:12:44;3.03;;;0.87;;
9032;SDS011;4551;53.164;8.210;2022-07-06T13:15:24;3.77;;;0.80;;
9032;SDS011;4551;53.164;8.210;2022-07-06T13:17:55;2.40;;;0.60;;
9032;SDS011;4551;53.164;8.210;2022-07-06T13:20:33;0.77;;;0.50;;
9032;SDS011;4551;53.164;8.210;2022-07-06T13:23:01;0.77;;;0.57;;
9032;SDS011;4551;53.164;8.210;2022-07-06T13:25:30;2.30;;;0.70;;
9032;SDS011;4551;53.164;8.210;2022-07-06T13:27:59;1.67;;;0.67;;
9032;SDS011;4551;53.164;8.210;2022-07-06T13:30:28;1.10;;;0.67;;
9032;SDS011;4551;53.164;8.210;2022-07-06T13:32:56;5.13;;;0.60;;
9032;SDS011;4551;53.164;8.210;2022-07-06T13:35:24;2.47;;;0.90;;
9032;SDS011;4551;53.164;8.210;2022-07-06T13:37:52;1.73;;;0.57;;
9032;SDS011;4551;53.164;8.210;2022-07-06T13:40:20;1.23;;;0.80;;
9032;SDS011;4551;53.164;8.210;2022-07-06T13:42:49;3.03;;;0.80;;
9032;SDS011;4551;53.164;8.210;2022-07-06T13:45:22;3.90;;;0.80;;
9032;SDS011;4551;53.164;8.210;2022-07-06T13:47:50;2.37;;;0.77;;
9032;SDS011;4551;53.164;8.210;2022-07-06T13:50:18;3.53;;;0.80;;
9032;SDS011;4551;53.164;8.210;2022-07-06T13:52:47;1.57;;;0.90;;
9032;SDS011;4551;53.164;8.210;2022-07-06T13:55:15;5.17;;;0.80;;
9032;SDS011;4551;53.164;8.210;2022-07-06T13:57:43;2.10;;;0.80;;
9032;SDS011;4551;53.164;8.210;2022-07-06T14:00:14;1.47;;;0.93;;
9032;SDS011;4551;53.164;8.210;2022-07-06T14:02:46;2.33;;;0.77;;
9032;SDS011;4551;53.164;8.210;2022-07-06T14:05:14;1.27;;;0.50;;
9032;SDS011;4551;53.164;8.210;2022-07-06T14:07:42;1.90;;;0.83;;
9032;SDS011;4551;53.164;8.210;2022-07-06T14:10:10;1.70;;;0.90;;
9032;SDS011;4551;53.164;8.210;2022-07-06T14:12:38;1.60;;;0.90;;
9032;SDS011;4551;53.164;8.210;2022-07-06T14:15:07;1.70;;;0.90;;
9032;SDS011;4551;53.164;8.210;2022-07-06T14:17:35;2.73;;;0.80;;
9032;SDS011;4551;53.164;8.210;2022-07-06T14:20:06;1.97;;;0.90;;
9032;SDS011;4551;53.164;8.210;2022-07-06T14:22:35;2.20;;;0.93;;
9032;SDS011;4551;53.164;8.210;2022-07-06T14:25:03;2.33;;;1.00;;
9032;SDS011;4551;53.164;8.210;2022-07-06T14:27:33;3.00;;;0.83;;
9032;SDS011;4551;53.164;8.210;2022-07-06T14:30:02;3.93;;;1.10;;
9032;SDS011;4551;53.164;8.210;2022-07-06T14:32:31;4.10;;;1.13;;
9032;SDS011;4551;53.164;8.210;2022-07-06T14:34:59;1.33;;;1.10;;
9032;SDS011;4551;53.164;8.210;2022-07-06T14:37:29;3.00;;;0.90;;
9032;SDS011;4551;53.164;8.210;2022-07-06T14:39:57;3.17;;;1.10;;
9032;SDS011;4551;53.164;8.210;2022-07-06T14:42:25;3.23;;;1.27;;
9032;SDS011;4551;53.164;8.210;2022-07-06T14:44:54;2.40;;;0.70;;
9032;SDS011;4551;53.164;8.210;2022-07-06T14:47:22;3.07;;;0.90;;
9032;SDS011;4551;53.164;8.210;2022-07-06T14:49:50;3.80;;;0.87;;
9032;SDS011;4551;53.164;8.210;2022-07-06T14:52:19;1.20;;;1.10;;
9032;SDS011;4551;53.164;8.210;2022-07-06T14:54:48;2.43;;;0.90;;
9032;SDS011;4551;53.164;8.210;2022-07-06T14:57:16;1.63;;;1.20;;
9032;SDS011;4551;53.164;8.210;2022-07-06T14:59:45;2.27;;;1.17;;
9032;SDS011;4551;53.164;8.210;2022-07-06T15:02:13;1.63;;;0.80;;
9032;SDS011;4551;53.164;8.210;2022-07-06T15:04:41;1.80;;;1.07;;
9032;SDS011;4551;53.164;8.210;2022-07-06T15:07:09;0.83;;;0.77;;
9032;SDS011;4551;53.164;8.210;2022-07-06T15:09:38;3.67;;;1.00;;
9032;SDS011;4551;53.164;8.210;2022-07-06T15:12:08;3.73;;;1.37;;
9032;SDS011;4551;53.164;8.210;2022-07-06T15:14:36;11.70;;;3.53;;
9032;SDS011;4551;53.164;8.210;2022-07-06T15:17:05;3.10;;;1.33;;
9032;SDS011;4551;53.164;8.210;2022-07-06T15:19:33;8.00;;;2.60;;
9032;SDS011;4551;53.164;8.210;2022-07-06T15:22:01;2.20;;;1.17;;
9032;SDS011;4551;53.164;8.210;2022-07-06T15:24:30;2.10;;;1.13;;
9032;SDS011;4551;53.164;8.210;2022-07-06T15:26:58;3.23;;;0.90;;
9032;SDS011;4551;53.164;8.210;2022-07-06T15:29:28;4.07;;;1.33;;
9032;SDS011;4551;53.164;8.210;2022-07-06T15:31:56;1.17;;;0.90;;